createdAt,value
2022-07-26T00:00:19.975Z,101313.22
2022-07-26T00:03:04.920Z,101300.53
2022-07-26T00:05:50.125Z,101323.16
2022-07-26T00:08:35.537Z,101337.69
2022-07-26T00:11:21.635Z,101331.81
2022-07-26T00:14:08.648Z,101333.22
2022-07-26T00:16:54.065Z,101332.66
2022-07-26T00:19:39.292Z,101332.69
2022-07-26T00:22:36.546Z,101337.56
2022-07-26T00:25:23.371Z,101325.69
2022-07-26T00:28:08.778Z,101301.34
2022-07-26T00:30:54.926Z,101335.97
2022-07-26T00:33:40.822Z,101338.47
2022-07-26T00:36:27.527Z,101341.28
2022-07-26T00:39:12.701Z,101338.47
2022-07-26T00:41:57.910Z,101344.19
2022-07-26T00:44:45.584Z,101343.03
2022-07-26T00:47:30.665Z,101346.25
2022-07-26T00:50:18.032Z,101350.38
2022-07-26T00:53:03.552Z,101358.50
2022-07-26T00:55:53.027Z,101356.22
2022-07-26T00:58:37.985Z,101353.97
2022-07-26T01:01:23.277Z,101356.19
2022-07-26T01:04:09.112Z,101340.84
2022-07-26T01:06:54.966Z,101343.88
2022-07-26T01:09:40.388Z,101351.16
2022-07-26T01:12:25.718Z,101320.38
2022-07-26T01:15:13.249Z,101356.28
2022-07-26T01:17:58.431Z,101351.75
2022-07-26T01:20:44.751Z,101341.09
2022-07-26T01:23:31.220Z,101350.75
2022-07-26T01:26:17.147Z,101348.44
2022-07-26T01:29:04.708Z,101349.69
2022-07-26T01:31:50.379Z,101353.69
2022-07-26T01:34:35.870Z,101357.94
2022-07-26T01:37:21.037Z,101350.34
2022-07-26T01:40:07.138Z,101354.91
2022-07-26T01:42:52.333Z,101351.31
2022-07-26T01:45:37.769Z,101350.72
2022-07-26T01:48:23.277Z,101353.16
2022-07-26T01:51:08.415Z,101333.16
2022-07-26T01:53:53.844Z,101355.88
2022-07-26T01:56:39.412Z,101362.06
2022-07-26T01:59:24.592Z,101343.13
2022-07-26T02:02:10.115Z,101366.91
2022-07-26T02:05:01.855Z,101343.78
2022-07-26T02:07:46.763Z,101367.19
2022-07-26T02:10:50.378Z,101356.88
2022-07-26T02:13:41.247Z,101368.53
2022-07-26T02:16:26.819Z,101373.22
2022-07-26T02:19:11.909Z,101373.22
2022-07-26T02:21:57.476Z,101370.47
2022-07-26T02:24:42.258Z,101375.41
2022-07-26T02:27:27.360Z,101382.84
2022-07-26T02:30:12.736Z,101371.81
2022-07-26T02:32:57.757Z,101373.72
2022-07-26T02:35:44.130Z,101389.31
2022-07-26T02:38:29.029Z,101371.78
2022-07-26T02:41:14.273Z,101387.63
2022-07-26T02:43:59.545Z,101376.00
2022-07-26T02:46:44.725Z,101367.00
2022-07-26T02:49:30.033Z,101364.94
2022-07-26T02:52:15.208Z,101384.75
2022-07-26T02:55:00.413Z,101394.38
2022-07-26T02:57:46.853Z,101400.72
2022-07-26T03:00:31.959Z,101380.63
2022-07-26T03:03:17.178Z,101397.22
2022-07-26T03:06:02.466Z,101392.91
2022-07-26T03:08:48.900Z,101400.91
2022-07-26T03:11:34.101Z,101392.16
2022-07-26T03:14:19.376Z,101377.97
2022-07-26T03:17:04.627Z,101412.56
2022-07-26T03:19:57.246Z,101417.81
2022-07-26T03:22:42.596Z,101415.44
2022-07-26T03:25:27.541Z,101416.16
2022-07-26T03:28:18.963Z,101390.81
2022-07-26T03:31:04.504Z,101405.84
2022-07-26T03:33:49.761Z,101398.41
2022-07-26T03:36:35.411Z,101408.97
2022-07-26T03:39:20.557Z,101413.28
2022-07-26T03:42:06.184Z,101399.72
2022-07-26T03:44:51.125Z,101390.13
2022-07-26T03:47:37.257Z,101414.84
2022-07-26T03:50:22.251Z,101413.78
2022-07-26T03:53:07.762Z,101420.53
2022-07-26T03:56:11.515Z,101419.19
2022-07-26T03:58:59.072Z,101436.84
2022-07-26T04:01:45.683Z,101425.09
2022-07-26T04:04:31.217Z,101431.56
2022-07-26T04:07:16.810Z,101424.50
2022-07-26T04:10:02.650Z,101419.94
2022-07-26T04:12:48.750Z,101439.16
2022-07-26T04:15:33.914Z,101434.69
2022-07-26T04:18:19.866Z,101422.19
2022-07-26T04:21:05.086Z,101442.13
2022-07-26T04:23:51.526Z,101435.41
2022-07-26T04:26:37.172Z,101434.47
2022-07-26T04:29:22.341Z,101431.69
2022-07-26T04:32:07.615Z,101421.59
2022-07-26T04:34:53.252Z,101440.09
2022-07-26T04:37:43.081Z,101446.59
2022-07-26T04:40:28.490Z,101440.22
2022-07-26T04:43:15.524Z,101453.09
2022-07-26T04:46:01.865Z,101459.31
2022-07-26T04:48:47.397Z,101448.38
2022-07-26T04:51:32.622Z,101454.59
2022-07-26T04:54:22.811Z,101472.25
2022-07-26T04:57:08.044Z,101487.28
2022-07-26T05:00:09.906Z,101483.19
2022-07-26T05:03:00.733Z,101486.06
2022-07-26T05:05:46.230Z,101494.94
2022-07-26T05:08:31.389Z,101500.00
2022-07-26T05:11:16.765Z,101503.72
2022-07-26T05:14:02.052Z,101505.75
2022-07-26T05:16:47.705Z,101511.03
2022-07-26T05:19:33.784Z,101499.78
2022-07-26T05:22:19.182Z,101510.94
2022-07-26T05:25:06.354Z,101512.50
2022-07-26T05:27:51.810Z,101487.28
2022-07-26T05:30:36.825Z,101520.91
2022-07-26T05:33:22.081Z,101524.50
2022-07-26T05:36:07.339Z,101519.22
2022-07-26T05:38:52.397Z,101523.66
2022-07-26T05:41:37.654Z,101523.31
2022-07-26T05:44:24.552Z,101530.16
2022-07-26T05:47:11.710Z,101515.63
2022-07-26T05:49:57.039Z,101516.38
2022-07-26T05:52:42.252Z,101525.97
2022-07-26T05:55:27.514Z,101530.16
2022-07-26T05:58:12.808Z,101530.28
2022-07-26T06:00:58.010Z,101536.53
2022-07-26T06:03:43.518Z,101534.63
2022-07-26T06:06:28.603Z,101539.78
2022-07-26T06:09:13.824Z,101545.28
2022-07-26T06:11:59.553Z,101543.72
2022-07-26T06:14:45.074Z,101547.59
2022-07-26T06:17:30.548Z,101527.19
2022-07-26T06:20:15.923Z,101552.41
2022-07-26T06:23:01.127Z,101535.34
2022-07-26T06:25:46.495Z,101543.03
2022-07-26T06:28:31.850Z,101540.38
2022-07-26T06:31:20.538Z,101561.66
2022-07-26T06:34:06.263Z,101572.88
2022-07-26T06:36:55.492Z,101572.88
2022-07-26T06:39:41.255Z,101569.84
2022-07-26T06:42:26.524Z,101569.50
2022-07-26T06:45:11.690Z,101540.41
2022-07-26T06:47:57.092Z,101558.66
2022-07-26T06:50:42.394Z,101554.94
2022-07-26T06:53:27.666Z,101574.75
2022-07-26T06:56:14.861Z,101584.84
2022-07-26T06:59:00.079Z,101589.19
2022-07-26T07:01:58.775Z,101574.84
2022-07-26T07:04:45.026Z,101587.09
2022-07-26T07:07:30.571Z,101589.25
2022-07-26T07:10:19.271Z,101587.31
2022-07-26T07:13:08.192Z,101598.50
2022-07-26T07:15:53.739Z,101598.50
2022-07-26T07:18:39.734Z,101594.66
2022-07-26T07:21:25.187Z,101594.66
2022-07-26T07:24:10.472Z,101588.88
2022-07-26T07:26:56.210Z,101607.63
2022-07-26T07:29:43.198Z,101603.66
2022-07-26T07:32:28.850Z,101606.91
2022-07-26T07:35:14.067Z,101606.69
2022-07-26T07:37:59.249Z,101611.47
2022-07-26T07:40:44.473Z,101602.28
2022-07-26T07:43:29.533Z,101601.13
2022-07-26T07:46:14.963Z,101623.19
2022-07-26T07:49:00.452Z,101613.78
2022-07-26T07:51:45.697Z,101617.53
2022-07-26T07:54:31.115Z,101606.44
2022-07-26T07:57:17.412Z,101615.97
2022-07-26T08:00:05.565Z,101618.25
2022-07-26T08:02:52.922Z,101632.41
2022-07-26T08:05:40.552Z,101624.19
2022-07-26T08:08:26.124Z,101620.50
2022-07-26T08:11:12.774Z,101634.06
2022-07-26T08:13:57.741Z,101630.22
2022-07-26T08:16:44.645Z,101633.69
2022-07-26T08:19:40.800Z,101646.69
2022-07-26T08:22:27.553Z,101641.47
2022-07-26T08:25:12.891Z,101645.28
2022-07-26T08:28:03.533Z,101622.38
2022-07-26T08:30:49.271Z,101620.06
2022-07-26T08:33:34.287Z,101637.19
2022-07-26T08:36:19.534Z,101645.06
2022-07-26T08:39:05.170Z,101647.97
2022-07-26T08:41:50.786Z,101647.13
2022-07-26T08:44:36.226Z,101645.72
2022-07-26T08:47:36.256Z,101645.72
2022-07-26T08:50:24.825Z,101631.88
2022-07-26T08:53:11.991Z,101633.50
2022-07-26T08:56:06.910Z,101638.44
2022-07-26T08:58:52.484Z,101634.88
2022-07-26T09:01:53.901Z,101650.63
2022-07-26T09:04:45.145Z,101653.63
2022-07-26T09:07:33.782Z,101656.84
2022-07-26T09:10:19.121Z,101665.94
2022-07-26T09:13:04.433Z,101655.25
2022-07-26T09:16:09.128Z,101667.34
2022-07-26T09:18:55.834Z,101662.47
2022-07-26T09:21:41.161Z,101663.31
2022-07-26T09:24:37.103Z,101675.63
2022-07-26T09:27:25.245Z,101679.66
2022-07-26T09:30:13.717Z,101680.78
2022-07-26T09:33:06.219Z,101687.13
2022-07-26T09:36:21.619Z,101684.66
2022-07-26T09:39:06.895Z,101690.13
2022-07-26T09:42:17.519Z,101677.53
2022-07-26T09:44:58.612Z,101689.28
2022-07-26T09:47:43.706Z,101681.88
2022-07-26T09:50:31.585Z,101693.47
2022-07-26T09:53:16.549Z,101696.16
2022-07-26T09:56:01.834Z,101701.00
2022-07-26T09:58:47.764Z,101699.53
2022-07-26T10:01:33.134Z,101681.28
2022-07-26T10:04:19.381Z,101701.41
2022-07-26T10:07:04.795Z,101694.09
2022-07-26T10:09:59.290Z,101699.09
2022-07-26T10:12:46.756Z,101704.28
2022-07-26T10:15:44.313Z,101704.44
2022-07-26T10:18:39.061Z,101696.38
2022-07-26T10:21:32.094Z,101700.75
2022-07-26T10:24:26.791Z,101709.22
2022-07-26T10:27:37.887Z,101709.22
2022-07-26T10:30:28.859Z,101703.69
2022-07-26T10:33:23.007Z,101695.75
2022-07-26T10:36:22.841Z,101712.66
2022-07-26T10:39:16.271Z,101712.38
2022-07-26T10:42:03.195Z,101710.16
2022-07-26T10:44:49.295Z,101701.22
2022-07-26T10:47:35.534Z,101691.25
2022-07-26T10:50:32.543Z,101699.09
2022-07-26T10:53:23.577Z,101717.28
2022-07-26T10:56:08.648Z,101719.06
2022-07-26T10:58:53.966Z,101716.84
2022-07-26T11:01:42.353Z,101710.09
2022-07-26T11:04:27.657Z,101724.50
2022-07-26T11:07:13.288Z,101712.31
2022-07-26T11:09:59.658Z,101716.28
2022-07-26T11:12:44.902Z,101716.16
2022-07-26T11:15:30.589Z,101708.31
2022-07-26T11:18:27.835Z,101702.38
2022-07-26T11:21:15.717Z,101709.88
2022-07-26T11:24:02.884Z,101718.47
2022-07-26T11:26:48.408Z,101718.53
2022-07-26T11:29:38.666Z,101708.56
2022-07-26T11:32:26.320Z,101709.53
2022-07-26T11:35:11.333Z,101706.88
2022-07-26T11:38:09.214Z,101704.06
2022-07-26T11:40:56.951Z,101690.72
2022-07-26T11:43:42.638Z,101679.56
2022-07-26T11:46:40.194Z,101681.81
2022-07-26T11:52:36.439Z,101677.47
2022-07-26T11:55:30.202Z,101682.13
2022-07-26T11:58:15.429Z,101668.03
2022-07-26T12:01:00.494Z,101677.63
2022-07-26T12:03:48.937Z,101682.88
2022-07-26T12:06:38.581Z,101684.78
2022-07-26T12:09:34.234Z,101682.28
2022-07-26T12:12:31.723Z,101676.28
2022-07-26T12:15:16.680Z,101679.09
2022-07-26T12:18:02.139Z,101672.91
2022-07-26T12:21:04.939Z,101659.28
2022-07-26T12:23:53.072Z,101668.63
2022-07-26T12:26:38.699Z,101680.94
2022-07-26T12:29:36.303Z,101672.59
2022-07-26T12:32:32.943Z,101690.44
2022-07-26T12:35:27.836Z,101686.75
2022-07-26T12:38:12.741Z,101670.69
2022-07-26T12:40:57.766Z,101703.25
2022-07-26T12:43:43.001Z,101696.25
2022-07-26T12:46:35.535Z,101704.19
2022-07-26T12:49:21.109Z,101702.81
2022-07-26T12:52:06.825Z,101709.41
2022-07-26T12:54:53.375Z,101686.31
2022-07-26T12:57:38.467Z,101699.94
2022-07-26T13:00:31.483Z,101692.41
2022-07-26T13:03:16.716Z,101696.91
2022-07-26T13:06:03.315Z,101697.72
2022-07-26T13:08:49.158Z,101697.66
2022-07-26T13:11:34.255Z,101693.53
2022-07-26T13:14:19.576Z,101699.22
2022-07-26T13:17:07.067Z,101679.91
2022-07-26T13:19:52.034Z,101691.09
2022-07-26T13:22:37.241Z,101697.09
2022-07-26T13:25:22.477Z,101698.50
2022-07-26T13:28:11.253Z,101693.16
2022-07-26T13:30:56.681Z,101687.09
2022-07-26T13:33:42.394Z,101674.53
2022-07-26T13:36:28.206Z,101681.88
2022-07-26T13:39:13.279Z,101686.88
2022-07-26T13:41:59.667Z,101686.63
2022-07-26T13:44:45.035Z,101673.22
2022-07-26T13:47:30.245Z,101695.59
2022-07-26T13:50:15.642Z,101682.88
2022-07-26T13:53:01.071Z,101684.88
2022-07-26T13:55:46.194Z,101701.06
2022-07-26T13:58:32.533Z,101675.78
2022-07-26T14:01:17.940Z,101691.28
2022-07-26T14:04:04.586Z,101693.63
2022-07-26T14:06:50.334Z,101700.13
2022-07-26T14:09:35.539Z,101688.38
2022-07-26T14:12:20.975Z,101678.59
2022-07-26T14:15:13.753Z,101688.50
2022-07-26T14:18:02.396Z,101696.25
2022-07-26T14:20:47.656Z,101702.25
2022-07-26T14:23:32.735Z,101683.06
2022-07-26T14:26:18.638Z,101700.03
2022-07-26T14:29:03.943Z,101685.66
2022-07-26T14:31:49.064Z,101698.97
2022-07-26T14:34:34.313Z,101692.31
2022-07-26T14:37:43.230Z,101695.19
2022-07-26T14:40:24.643Z,101699.53
2022-07-26T14:43:10.069Z,101678.13
2022-07-26T14:45:55.514Z,101674.75
2022-07-26T14:48:54.081Z,101701.34
2022-07-26T14:51:39.966Z,101696.97
2022-07-26T14:54:25.156Z,101704.03
2022-07-26T14:57:10.418Z,101694.94
2022-07-26T14:59:55.972Z,101698.75
2022-07-26T15:02:43.085Z,101703.16
2022-07-26T15:05:28.753Z,101700.66
2022-07-26T15:08:13.738Z,101699.16
2022-07-26T15:10:59.134Z,101701.69
2022-07-26T15:13:44.734Z,101702.53
2022-07-26T15:16:32.173Z,101699.19
2022-07-26T15:19:19.948Z,101674.13
2022-07-26T15:22:09.463Z,101684.50
2022-07-26T15:24:54.475Z,101675.59
2022-07-26T15:27:40.131Z,101680.78
2022-07-26T15:30:25.642Z,101677.25
2022-07-26T15:33:11.890Z,101679.25
2022-07-26T15:35:57.242Z,101676.91
2022-07-26T15:38:45.173Z,101679.97
2022-07-26T15:41:30.399Z,101679.44
2022-07-26T15:44:17.519Z,101666.22
2022-07-26T15:47:02.482Z,101659.72
2022-07-26T15:49:49.066Z,101674.44
2022-07-26T15:52:37.395Z,101672.13
2022-07-26T15:55:22.731Z,101658.53
2022-07-26T15:58:07.883Z,101657.47
2022-07-26T16:00:53.132Z,101665.63
2022-07-26T16:03:38.969Z,101673.41
2022-07-26T16:06:24.565Z,101680.53
2022-07-26T16:09:19.153Z,101672.41
2022-07-26T16:12:06.316Z,101671.25
2022-07-26T16:14:51.746Z,101675.00
2022-07-26T16:17:36.733Z,101677.88
2022-07-26T16:20:22.186Z,101670.97
2022-07-26T16:23:07.213Z,101672.47
2022-07-26T16:25:52.602Z,101657.38
2022-07-26T16:28:37.721Z,101661.69
2022-07-26T16:31:23.045Z,101652.53
2022-07-26T16:34:09.368Z,101663.56
2022-07-26T16:36:54.718Z,101660.91
2022-07-26T16:39:40.027Z,101659.06
2022-07-26T16:42:25.382Z,101658.09
2022-07-26T16:45:11.063Z,101656.09
2022-07-26T16:47:59.888Z,101652.06
2022-07-26T16:50:45.105Z,101650.91
2022-07-26T16:53:30.632Z,101649.72
2022-07-26T16:56:15.728Z,101647.06
2022-07-26T16:59:01.265Z,101642.03
2022-07-26T17:01:46.354Z,101646.66
2022-07-26T17:04:31.565Z,101642.78
2022-07-26T17:07:25.783Z,101636.59
2022-07-26T17:10:11.505Z,101633.94
2022-07-26T17:12:56.883Z,101627.25
2022-07-26T17:15:42.186Z,101628.41
2022-07-26T17:18:27.406Z,101628.91
2022-07-26T17:21:12.722Z,101627.53
2022-07-26T17:24:00.516Z,101630.00
2022-07-26T17:26:47.686Z,101616.63
2022-07-26T17:29:33.020Z,101617.13
2022-07-26T17:32:18.721Z,101616.75
2022-07-26T17:35:05.685Z,101634.50
2022-07-26T17:37:55.388Z,101628.34
2022-07-26T17:40:41.467Z,101640.44
2022-07-26T17:43:36.458Z,101650.81
2022-07-26T17:46:22.549Z,101651.31
2022-07-26T17:49:08.014Z,101652.28
2022-07-26T17:51:57.273Z,101646.63
2022-07-26T17:54:42.244Z,101647.00
2022-07-26T17:57:27.763Z,101645.69
2022-07-26T18:00:13.607Z,101645.47
2022-07-26T18:02:58.957Z,101641.31
2022-07-26T18:05:44.402Z,101633.38
2022-07-26T18:08:30.009Z,101622.88
2022-07-26T18:11:14.935Z,101639.41
2022-07-26T18:14:00.286Z,101649.16
2022-07-26T18:16:48.249Z,101646.16
2022-07-26T18:19:39.873Z,101646.38
2022-07-26T18:22:25.386Z,101661.97
2022-07-26T18:25:10.781Z,101667.19
2022-07-26T18:27:56.066Z,101645.88
2022-07-26T18:30:41.359Z,101658.72
2022-07-26T18:33:26.752Z,101658.09
2022-07-26T18:36:11.879Z,101650.69
2022-07-26T18:38:57.201Z,101665.53
2022-07-26T18:41:42.230Z,101657.84
2022-07-26T18:44:27.363Z,101659.25
2022-07-26T18:47:12.565Z,101665.03
2022-07-26T18:49:57.884Z,101669.53
2022-07-26T18:52:45.545Z,101659.72
2022-07-26T18:55:30.504Z,101660.19
2022-07-26T18:58:15.711Z,101658.06
2022-07-26T19:01:00.956Z,101664.66
2022-07-26T19:03:46.308Z,101673.19
2022-07-26T19:06:31.352Z,101659.91
2022-07-26T19:09:16.682Z,101676.13
2022-07-26T19:12:02.085Z,101681.06
2022-07-26T19:14:47.218Z,101668.03
2022-07-26T19:17:33.631Z,101679.50
2022-07-26T19:20:18.673Z,101682.03
2022-07-26T19:23:04.811Z,101684.81
2022-07-26T19:25:50.162Z,101691.41
2022-07-26T19:28:35.732Z,101678.25
2022-07-26T19:31:21.651Z,101694.75
2022-07-26T19:34:07.059Z,101697.00
2022-07-26T19:36:52.966Z,101691.78
2022-07-26T19:39:38.216Z,101684.25
2022-07-26T19:42:23.331Z,101705.09
2022-07-26T19:45:09.582Z,101702.69
2022-07-26T19:47:55.212Z,101684.72
2022-07-26T19:50:40.671Z,101717.91
2022-07-26T19:53:25.973Z,101707.13
2022-07-26T19:56:11.131Z,101716.09
2022-07-26T19:58:57.648Z,101703.00
2022-07-26T20:01:42.918Z,101722.75
2022-07-26T20:04:28.337Z,101729.16
2022-07-26T20:07:19.328Z,101730.84
2022-07-26T20:10:05.762Z,101724.97
2022-07-26T20:12:50.884Z,101743.69
2022-07-26T20:15:36.331Z,101735.00
2022-07-26T20:18:24.748Z,101755.00
2022-07-26T20:21:09.679Z,101748.97
2022-07-26T20:23:55.040Z,101750.25
2022-07-26T20:26:40.399Z,101757.31
2022-07-26T20:29:25.886Z,101759.63
2022-07-26T20:32:11.157Z,101757.56
2022-07-26T20:34:56.434Z,101764.41
2022-07-26T20:37:43.074Z,101758.88
2022-07-26T20:40:28.848Z,101776.44
2022-07-26T20:43:13.965Z,101781.63
2022-07-26T20:45:59.927Z,101787.19
2022-07-26T20:48:45.367Z,101784.84
2022-07-26T20:51:30.804Z,101784.75
2022-07-26T20:54:16.091Z,101793.94
2022-07-26T20:57:04.263Z,101787.75
2022-07-26T20:59:49.850Z,101790.41
2022-07-26T21:02:35.103Z,101797.94
2022-07-26T21:05:20.632Z,101797.78
2022-07-26T21:08:05.804Z,101788.78
2022-07-26T21:10:50.972Z,101808.38
2022-07-26T21:13:36.609Z,101818.03
2022-07-26T21:16:21.566Z,101818.16
2022-07-26T21:19:06.934Z,101818.66
2022-07-26T21:21:54.592Z,101825.03
2022-07-26T21:24:39.621Z,101810.59
2022-07-26T21:27:24.965Z,101820.19
2022-07-26T21:30:10.614Z,101814.56
2022-07-26T21:32:55.699Z,101829.97
2022-07-26T21:35:41.128Z,101829.63
2022-07-26T21:38:27.777Z,101828.53
2022-07-26T21:41:13.668Z,101826.88
2022-07-26T21:43:58.843Z,101825.06
2022-07-26T21:46:44.081Z,101834.56
2022-07-26T21:49:29.492Z,101840.94
2022-07-26T21:52:14.840Z,101836.75
2022-07-26T21:55:00.097Z,101839.09
2022-07-26T21:57:45.452Z,101841.03
2022-07-26T22:00:30.878Z,101844.16
2022-07-26T22:03:16.143Z,101826.81
2022-07-26T22:06:01.523Z,101838.63
2022-07-26T22:08:46.781Z,101816.47
2022-07-26T22:11:32.118Z,101844.41
2022-07-26T22:14:17.601Z,101835.72
2022-07-26T22:17:02.748Z,101844.97
2022-07-26T22:19:48.099Z,101860.38
2022-07-26T22:22:34.700Z,101841.09
2022-07-26T22:25:19.734Z,101854.09
2022-07-26T22:28:06.611Z,101822.41
2022-07-26T22:30:51.784Z,101850.22
2022-07-26T22:33:37.205Z,101847.31
2022-07-26T22:36:22.477Z,101850.19
2022-07-26T22:39:09.123Z,101858.34
2022-07-26T22:42:14.157Z,101836.31
2022-07-26T22:44:59.383Z,101850.00
2022-07-26T22:47:55.730Z,101858.91
2022-07-26T22:50:41.259Z,101847.00
2022-07-26T22:53:26.701Z,101852.88
2022-07-26T22:56:11.853Z,101855.78
2022-07-26T22:59:04.895Z,101853.13
2022-07-26T23:01:49.896Z,101859.16
2022-07-26T23:04:35.406Z,101857.56
2022-07-26T23:07:20.550Z,101859.38
2022-07-26T23:10:08.877Z,101841.09
2022-07-26T23:12:55.274Z,101852.53
2022-07-26T23:15:40.420Z,101826.66
2022-07-26T23:18:25.715Z,101849.13
2022-07-26T23:21:10.917Z,101846.81
2022-07-26T23:23:56.428Z,101846.13
2022-07-26T23:26:41.393Z,101839.63
2022-07-26T23:29:26.527Z,101844.31
2022-07-26T23:32:11.966Z,101839.63
2022-07-26T23:34:57.132Z,101819.50
2022-07-26T23:37:42.408Z,101837.13
2022-07-26T23:40:27.625Z,101829.03
2022-07-26T23:43:12.833Z,101836.50
2022-07-26T23:45:58.143Z,101840.69
2022-07-26T23:48:43.422Z,101835.41
2022-07-26T23:51:28.785Z,101841.53
2022-07-26T23:54:14.137Z,101835.41
2022-07-26T23:56:59.536Z,101832.91
2022-07-26T23:59:45.081Z,101837.31
